createdAt,value
2018-11-10T00:02:09.797Z,27.80
2018-11-10T00:04:38.427Z,26.80
2018-11-10T00:07:16.987Z,26.60
2018-11-10T00:09:45.550Z,29.63
2018-11-10T00:12:14.094Z,29.50
2018-11-10T00:14:42.608Z,28.60
2018-11-10T00:17:11.266Z,27.60
2018-11-10T00:19:39.872Z,24.80
2018-11-10T00:22:12.520Z,27.53
2018-11-10T00:24:41.078Z,27.17
2018-11-10T00:27:09.672Z,26.67
2018-11-10T00:29:38.252Z,26.70
2018-11-10T00:32:06.929Z,28.57
2018-11-10T00:34:35.533Z,28.23
2018-11-10T00:37:04.099Z,26.30
2018-11-10T00:39:39.705Z,28.40
2018-11-10T00:42:08.378Z,26.70
2018-11-10T00:44:37.021Z,27.27
2018-11-10T00:47:05.641Z,29.67
2018-11-10T00:49:34.256Z,27.87
2018-11-10T00:52:02.847Z,30.40
2018-11-10T00:54:31.554Z,30.57
2018-11-10T00:57:00.139Z,26.97
2018-11-10T00:59:28.824Z,27.83
2018-11-10T01:01:57.396Z,30.23
2018-11-10T01:04:25.922Z,28.87
2018-11-10T01:06:56.590Z,29.03
2018-11-10T01:09:25.147Z,29.07
2018-11-10T01:11:53.709Z,28.50
2018-11-10T01:14:22.231Z,28.00
2018-11-10T01:16:50.763Z,28.23
2018-11-10T01:19:19.291Z,26.90
2018-11-10T01:21:54.689Z,28.50
2018-11-10T01:24:23.312Z,29.63
2018-11-10T01:26:51.839Z,28.13
2018-11-10T01:29:20.499Z,26.53
2018-11-10T01:31:49.025Z,25.87
2018-11-10T01:34:17.706Z,21.80
2018-11-10T01:36:47.312Z,25.43
2018-11-10T01:39:15.995Z,26.00
2018-11-10T01:41:44.564Z,25.43
2018-11-10T01:44:12.817Z,24.47
2018-11-10T01:46:41.090Z,25.10
2018-11-10T01:49:09.399Z,24.27
2018-11-10T01:51:37.718Z,24.70
2018-11-10T01:54:06.104Z,23.67
2018-11-10T01:56:34.389Z,26.47
2018-11-10T01:59:02.674Z,25.10
2018-11-10T02:01:30.937Z,22.90
2018-11-10T02:03:59.215Z,24.40
2018-11-10T02:06:27.502Z,27.50
2018-11-10T02:08:55.789Z,28.60
2018-11-10T02:11:24.110Z,29.97
2018-11-10T02:13:52.409Z,27.63
2018-11-10T02:16:20.713Z,28.50
2018-11-10T02:18:49.042Z,29.03
2018-11-10T02:21:17.488Z,28.70
2018-11-10T02:23:45.841Z,27.93
2018-11-10T02:26:14.180Z,27.60
2018-11-10T02:28:42.516Z,26.57
2018-11-10T02:31:10.826Z,27.73
2018-11-10T02:33:39.141Z,29.30
2018-11-10T02:36:07.426Z,26.80
2018-11-10T02:38:35.751Z,27.40
2018-11-10T02:41:14.885Z,27.67
2018-11-10T02:43:43.210Z,31.83
2018-11-10T02:46:11.492Z,30.87
2018-11-10T02:48:39.817Z,33.57
2018-11-10T02:51:08.113Z,29.53
2018-11-10T02:53:36.416Z,31.00
2018-11-10T02:56:04.962Z,31.33
2018-11-10T02:58:33.312Z,35.70
2018-11-10T03:01:01.636Z,36.10
2018-11-10T03:03:29.960Z,33.60
2018-11-10T03:05:58.257Z,33.57
2018-11-10T03:08:26.528Z,31.73
2018-11-10T03:10:54.881Z,31.97
2018-11-10T03:13:23.091Z,33.00
2018-11-10T03:15:55.464Z,34.20
2018-11-10T03:18:23.794Z,34.30
2018-11-10T03:20:52.078Z,32.87
2018-11-10T03:23:20.354Z,33.53
2018-11-10T03:25:48.656Z,32.20
2018-11-10T03:28:16.919Z,31.70
2018-11-10T03:30:47.324Z,33.93
2018-11-10T03:33:15.605Z,31.90
2018-11-10T03:35:43.877Z,31.63
2018-11-10T03:38:12.210Z,31.80
2018-11-10T03:40:40.523Z,33.63
2018-11-10T03:43:08.884Z,31.30
2018-11-10T03:45:37.164Z,30.97
2018-11-10T03:48:05.502Z,30.07
2018-11-10T03:50:33.799Z,29.93
2018-11-10T03:53:02.115Z,30.23
2018-11-10T03:55:30.400Z,28.07
2018-11-10T03:57:58.704Z,29.70
2018-11-10T04:00:26.978Z,27.30
2018-11-10T04:02:55.270Z,26.13
2018-11-10T04:05:23.680Z,28.20
2018-11-10T04:07:51.968Z,27.50
2018-11-10T04:10:20.266Z,28.00
2018-11-10T04:12:48.584Z,28.20
2018-11-10T04:15:16.928Z,26.67
2018-11-10T04:17:45.221Z,28.83
2018-11-10T04:20:13.686Z,27.07
2018-11-10T04:22:41.961Z,30.10
2018-11-10T04:25:11.098Z,29.53
2018-11-10T04:27:39.448Z,28.93
2018-11-10T04:30:09.033Z,29.17
2018-11-10T04:32:37.568Z,26.53
2018-11-10T04:35:09.496Z,28.57
2018-11-10T04:37:37.890Z,36.53
2018-11-10T04:40:07.126Z,28.03
2018-11-10T04:42:35.428Z,31.83
2018-11-10T04:45:03.803Z,29.20
2018-11-10T04:47:32.103Z,30.47
2018-11-10T04:50:00.375Z,28.80
2018-11-10T04:52:28.652Z,28.00
2018-11-10T04:55:04.510Z,27.07
2018-11-10T04:57:32.806Z,29.03
2018-11-10T05:00:01.168Z,26.07
2018-11-10T05:02:29.461Z,26.47
2018-11-10T05:04:57.765Z,24.47
2018-11-10T05:07:26.073Z,25.13
2018-11-10T05:09:55.474Z,26.30
2018-11-10T05:12:23.754Z,26.13
2018-11-10T05:14:52.036Z,25.13
2018-11-10T05:17:20.306Z,25.57
2018-11-10T05:19:48.636Z,26.80
2018-11-10T05:22:16.940Z,26.23
2018-11-10T05:24:46.344Z,34.33
2018-11-10T05:27:14.687Z,33.03
2018-11-10T05:29:42.966Z,31.40
2018-11-10T05:32:11.346Z,30.27
2018-11-10T05:34:39.662Z,27.37
2018-11-10T05:37:07.963Z,26.97
2018-11-10T05:39:36.202Z,27.33
2018-11-10T05:42:04.569Z,29.47
2018-11-10T05:44:32.946Z,28.97
2018-11-10T05:47:01.268Z,27.30
2018-11-10T05:49:30.650Z,29.70
2018-11-10T05:51:58.964Z,29.77
2018-11-10T05:54:27.327Z,30.17
2018-11-10T05:56:55.637Z,29.97
2018-11-10T05:59:23.976Z,32.50
2018-11-10T06:01:52.281Z,31.90
2018-11-10T06:04:20.593Z,28.33
2018-11-10T06:06:48.945Z,29.50
2018-11-10T06:09:17.490Z,30.30
2018-11-10T06:11:45.795Z,28.27
2018-11-10T06:14:14.091Z,27.50
2018-11-10T06:16:42.435Z,25.47
2018-11-10T06:19:10.745Z,25.67
2018-11-10T06:21:41.061Z,25.10
2018-11-10T06:24:09.344Z,25.60
2018-11-10T06:26:37.666Z,25.30
2018-11-10T06:29:06.022Z,25.80
2018-11-10T06:31:34.318Z,26.33
2018-11-10T06:34:02.626Z,23.90
2018-11-10T06:36:30.921Z,23.93
2018-11-10T06:38:59.207Z,24.77
2018-11-10T06:41:27.611Z,25.10
2018-11-10T06:43:55.856Z,24.30
2018-11-10T06:46:24.205Z,25.27
2018-11-10T06:48:52.496Z,24.97
2018-11-10T06:51:20.810Z,23.63
2018-11-10T06:53:49.165Z,23.80
2018-11-10T06:56:17.462Z,22.97
2018-11-10T06:58:45.812Z,24.13
2018-11-10T07:01:14.168Z,24.63
2018-11-10T07:03:42.486Z,24.00
2018-11-10T07:06:10.777Z,25.07
2018-11-10T07:08:41.155Z,23.53
2018-11-10T07:11:09.450Z,23.60
2018-11-10T07:13:38.622Z,26.87
2018-11-10T07:16:06.878Z,27.10
2018-11-10T07:18:35.213Z,23.77
2018-11-10T07:21:03.499Z,25.83
2018-11-10T07:23:31.770Z,27.43
2018-11-10T07:26:00.139Z,31.03
2018-11-10T07:28:28.412Z,32.37
2018-11-10T07:30:56.720Z,31.00
2018-11-10T07:33:25.101Z,28.87
2018-11-10T07:35:53.334Z,27.37
2018-11-10T07:38:21.659Z,25.70
2018-11-10T07:40:49.971Z,27.50
2018-11-10T07:43:18.311Z,27.10
2018-11-10T07:45:46.646Z,25.80
2018-11-10T07:48:14.958Z,24.70
2018-11-10T07:50:43.252Z,26.03
2018-11-10T07:53:11.604Z,26.53
2018-11-10T07:55:39.864Z,26.20
2018-11-10T07:58:08.125Z,24.70
2018-11-10T08:00:36.353Z,25.20
2018-11-10T08:03:04.819Z,25.93
2018-11-10T08:05:33.215Z,23.63
2018-11-10T08:08:01.513Z,25.97
2018-11-10T08:10:29.835Z,26.53
2018-11-10T08:12:58.163Z,28.70
2018-11-10T08:15:26.512Z,27.90
2018-11-10T08:17:54.832Z,26.37
2018-11-10T08:20:23.081Z,22.97
2018-11-10T08:22:51.400Z,22.70
2018-11-10T08:25:19.712Z,24.30
2018-11-10T08:27:48.010Z,23.83
2018-11-10T08:30:16.327Z,23.70
2018-11-10T08:32:44.980Z,22.27
2018-11-10T08:35:14.131Z,23.93
2018-11-10T08:37:42.462Z,25.07
2018-11-10T08:40:13.579Z,25.03
2018-11-10T08:42:41.933Z,24.00
2018-11-10T08:45:11.887Z,23.40
2018-11-10T08:47:40.524Z,23.97
2018-11-10T08:50:09.868Z,23.40
2018-11-10T08:52:38.172Z,26.10
2018-11-10T08:55:07.232Z,24.50
2018-11-10T08:57:35.610Z,24.10
2018-11-10T09:00:04.227Z,23.37
2018-11-10T09:02:32.519Z,25.43
2018-11-10T09:05:00.820Z,25.27
2018-11-10T09:07:29.138Z,24.07
2018-11-10T09:09:57.484Z,24.07
2018-11-10T09:12:25.717Z,22.80
2018-11-10T09:14:56.198Z,23.37
2018-11-10T09:17:24.486Z,27.00
2018-11-10T09:19:52.786Z,35.03
2018-11-10T09:22:21.211Z,26.97
2018-11-10T09:24:49.501Z,31.30
2018-11-10T09:27:17.891Z,28.77
2018-11-10T09:29:46.244Z,27.60
2018-11-10T09:32:14.604Z,27.43
2018-11-10T09:34:42.920Z,25.93
2018-11-10T09:37:11.255Z,23.80
2018-11-10T09:39:39.623Z,24.30
2018-11-10T09:42:08.016Z,24.40
2018-11-10T09:44:36.228Z,31.10
2018-11-10T09:47:05.261Z,28.27
2018-11-10T09:49:33.507Z,23.57
2018-11-10T09:52:01.844Z,24.10
2018-11-10T09:54:30.162Z,30.50
2018-11-10T09:56:58.478Z,30.23
2018-11-10T09:59:26.719Z,22.33
2018-11-10T10:01:55.126Z,24.57
2018-11-10T10:04:25.325Z,26.03
2018-11-10T10:06:53.726Z,19.90
2018-11-10T10:09:22.063Z,19.77
2018-11-10T10:11:50.403Z,18.70
2018-11-10T10:14:18.708Z,20.57
2018-11-10T10:16:47.022Z,17.80
2018-11-10T10:19:15.288Z,16.07
2018-11-10T10:21:43.644Z,16.80
2018-11-10T10:24:12.016Z,17.13
2018-11-10T10:26:40.353Z,16.57
2018-11-10T10:29:09.058Z,17.60
2018-11-10T10:31:37.264Z,15.97
2018-11-10T10:34:05.783Z,15.20
2018-11-10T10:36:33.996Z,14.60
2018-11-10T10:39:02.339Z,15.23
2018-11-10T10:41:30.682Z,15.00
2018-11-10T10:43:58.997Z,14.67
2018-11-10T10:46:27.344Z,15.33
2018-11-10T10:48:56.384Z,17.03
2018-11-10T10:51:24.524Z,16.70
2018-11-10T10:53:52.835Z,16.83
2018-11-10T10:56:21.184Z,18.40
2018-11-10T10:58:49.503Z,16.43
2018-11-10T11:01:23.108Z,18.47
2018-11-10T11:03:56.843Z,18.50
2018-11-10T11:06:25.267Z,19.70
2018-11-10T11:08:53.608Z,18.30
2018-11-10T11:11:21.859Z,15.60
2018-11-10T11:13:50.200Z,17.40
2018-11-10T11:16:18.762Z,16.40
2018-11-10T11:18:47.064Z,15.07
2018-11-10T11:21:15.391Z,16.70
2018-11-10T11:23:43.716Z,25.20
2018-11-10T11:26:12.037Z,18.30
2018-11-10T11:28:40.319Z,15.83
2018-11-10T11:31:08.690Z,18.63
2018-11-10T11:33:37.024Z,21.00
2018-11-10T11:36:05.404Z,17.00
2018-11-10T11:38:33.703Z,16.10
2018-11-10T11:41:02.116Z,22.83
2018-11-10T11:43:35.100Z,14.63
2018-11-10T11:46:03.743Z,16.67
2018-11-10T11:48:32.552Z,18.87
2018-11-10T11:51:01.091Z,15.90
2018-11-10T11:53:29.451Z,20.63
2018-11-10T11:55:57.691Z,17.20
2018-11-10T11:58:26.124Z,15.73
2018-11-10T12:01:12.828Z,14.47
2018-11-10T12:03:41.252Z,18.10
2018-11-10T12:06:09.554Z,16.37
2018-11-10T12:08:37.866Z,15.33
2018-11-10T12:11:06.231Z,15.10
2018-11-10T12:13:40.335Z,16.40
2018-11-10T12:16:08.600Z,14.63
2018-11-10T12:18:37.033Z,15.70
2018-11-10T12:21:05.675Z,16.47
2018-11-10T12:23:33.969Z,15.30
2018-11-10T12:26:02.584Z,15.53
2018-11-10T12:28:32.970Z,15.83
2018-11-10T12:31:01.265Z,16.57
2018-11-10T12:33:29.594Z,15.83
2018-11-10T12:35:57.948Z,16.50
2018-11-10T12:38:26.281Z,15.90
2018-11-10T12:40:54.564Z,15.33
2018-11-10T12:43:22.867Z,16.97
2018-11-10T12:45:51.184Z,16.63
2018-11-10T12:48:19.539Z,15.07
2018-11-10T12:50:47.855Z,15.07
2018-11-10T12:53:16.165Z,15.60
2018-11-10T12:55:44.465Z,13.67
2018-11-10T12:58:12.821Z,15.30
2018-11-10T13:00:52.222Z,16.50
2018-11-10T13:03:20.524Z,14.10
2018-11-10T13:05:48.798Z,14.23
2018-11-10T13:08:17.202Z,13.37
2018-11-10T13:10:45.450Z,12.10
2018-11-10T13:13:14.816Z,11.33
2018-11-10T13:15:44.000Z,12.10
2018-11-10T13:18:12.321Z,11.93
2018-11-10T13:20:40.614Z,11.50
2018-11-10T13:23:08.883Z,10.17
2018-11-10T13:25:37.150Z,9.73
2018-11-10T13:28:05.589Z,10.10
2018-11-10T13:30:33.890Z,10.83
2018-11-10T13:33:02.241Z,10.50
2018-11-10T13:35:30.524Z,9.80
2018-11-10T13:37:58.891Z,9.60
2018-11-10T13:40:27.102Z,9.97
2018-11-10T13:42:56.492Z,11.50
2018-11-10T13:45:24.763Z,10.30
2018-11-10T13:47:53.042Z,11.40
2018-11-10T13:50:21.332Z,12.23
2018-11-10T13:52:50.057Z,10.70
2018-11-10T13:55:17.975Z,10.43
2018-11-10T13:57:46.348Z,10.50
2018-11-10T14:00:18.127Z,11.20
2018-11-10T14:02:46.426Z,10.00
2018-11-10T14:05:14.989Z,9.70
2018-11-10T14:07:43.314Z,10.70
2018-11-10T14:10:13.048Z,10.80
2018-11-10T14:12:42.274Z,12.30
2018-11-10T14:15:11.514Z,11.30
2018-11-10T14:17:40.678Z,11.13
2018-11-10T14:20:10.977Z,10.67
2018-11-10T14:22:39.273Z,12.60
2018-11-10T14:25:09.139Z,13.90
2018-11-10T14:27:38.189Z,11.50
2018-11-10T14:30:08.421Z,10.37
2018-11-10T14:32:36.766Z,10.47
2018-11-10T14:35:06.689Z,9.90
2018-11-10T14:37:35.107Z,13.67
2018-11-10T14:40:03.586Z,9.70
2018-11-10T14:42:31.920Z,9.30
2018-11-10T14:45:00.274Z,10.47
2018-11-10T14:47:28.581Z,9.60
2018-11-10T14:49:56.867Z,10.13
2018-11-10T14:52:25.158Z,8.87
2018-11-10T14:54:53.462Z,8.27
2018-11-10T14:57:21.725Z,10.53
2018-11-10T14:59:50.064Z,9.00
2018-11-10T15:02:18.373Z,9.20
2018-11-10T15:04:46.685Z,9.20
2018-11-10T15:07:15.014Z,8.93
2018-11-10T15:09:43.313Z,9.37
2018-11-10T15:12:17.525Z,8.17
2018-11-10T15:14:45.708Z,9.33
2018-11-10T15:17:13.973Z,10.50
2018-11-10T15:19:43.377Z,9.17
2018-11-10T15:22:11.653Z,8.80
2018-11-10T15:24:40.935Z,8.70
2018-11-10T15:27:12.339Z,8.30
2018-11-10T15:29:40.709Z,8.80
2018-11-10T15:32:09.070Z,9.17
2018-11-10T15:34:37.650Z,8.60
2018-11-10T15:37:06.311Z,8.87
2018-11-10T15:39:35.982Z,9.17
2018-11-10T15:42:05.078Z,8.13
2018-11-10T15:44:33.523Z,8.37
2018-11-10T15:47:01.899Z,8.07
2018-11-10T15:49:30.240Z,8.10
2018-11-10T15:51:58.595Z,9.10
2018-11-10T15:54:30.622Z,11.30
2018-11-10T15:56:58.963Z,9.17
2018-11-10T15:59:27.264Z,9.10
2018-11-10T16:01:55.571Z,9.30
2018-11-10T16:04:23.998Z,8.97
2018-11-10T16:06:52.351Z,10.10
2018-11-10T16:09:20.724Z,10.63
2018-11-10T16:11:48.962Z,10.77
2018-11-10T16:14:17.257Z,11.03
2018-11-10T16:16:45.537Z,10.63
2018-11-10T16:19:13.907Z,10.30
2018-11-10T16:21:42.227Z,10.53
2018-11-10T16:24:10.552Z,16.50
2018-11-10T16:26:38.858Z,9.73
2018-11-10T16:29:06.922Z,9.17
2018-11-10T16:31:35.289Z,9.83
2018-11-10T16:34:03.701Z,9.73
2018-11-10T16:36:32.005Z,8.90
2018-11-10T16:39:02.416Z,9.97
2018-11-10T16:41:30.673Z,9.03
2018-11-10T16:43:59.011Z,9.97
2018-11-10T16:46:27.350Z,21.17
2018-11-10T16:48:55.683Z,22.47
2018-11-10T16:51:24.044Z,47.17
2018-11-10T16:53:53.383Z,25.80
2018-11-10T16:56:21.793Z,26.97
2018-11-10T16:58:50.119Z,15.00
2018-11-10T17:01:18.386Z,13.43
2018-11-10T17:03:46.789Z,19.00
2018-11-10T17:06:15.122Z,14.87
2018-11-10T17:08:44.541Z,13.43
2018-11-10T17:11:13.646Z,11.33
2018-11-10T17:13:42.154Z,14.80
2018-11-10T17:16:10.312Z,16.47
2018-11-10T17:18:38.739Z,14.97
2018-11-10T17:21:07.005Z,12.67
2018-11-10T17:23:35.794Z,17.43
2018-11-10T17:26:04.273Z,16.70
2018-11-10T17:28:32.575Z,16.20
2018-11-10T17:31:00.877Z,13.00
2018-11-10T17:33:29.233Z,14.43
2018-11-10T17:35:57.607Z,16.30
2018-11-10T17:38:25.948Z,14.60
2018-11-10T17:40:54.277Z,16.70
2018-11-10T17:43:22.655Z,16.70
2018-11-10T17:45:51.057Z,14.57
2018-11-10T17:48:19.470Z,14.60
2018-11-10T17:50:47.767Z,18.73
2018-11-10T17:53:16.220Z,16.27
2018-11-10T17:55:44.580Z,19.13
2018-11-10T17:58:12.957Z,18.53
2018-11-10T18:00:41.334Z,21.03
2018-11-10T18:03:09.682Z,19.57
2018-11-10T18:05:38.007Z,21.23
2018-11-10T18:08:06.808Z,28.20
2018-11-10T18:10:35.138Z,22.10
2018-11-10T18:13:05.559Z,21.87
2018-11-10T18:15:33.864Z,22.23
2018-11-10T18:18:02.217Z,20.30
2018-11-10T18:20:30.604Z,19.90
2018-11-10T18:22:58.968Z,20.53
2018-11-10T18:25:27.414Z,19.20
2018-11-10T18:27:55.701Z,21.10
2018-11-10T18:30:23.971Z,20.00
2018-11-10T18:32:52.322Z,26.10
2018-11-10T18:35:20.661Z,23.23
2018-11-10T18:37:48.992Z,19.63
2018-11-10T18:40:17.323Z,20.70
2018-11-10T18:42:45.643Z,22.30
2018-11-10T18:45:13.975Z,26.43
2018-11-10T18:47:42.734Z,37.70
2018-11-10T18:50:14.945Z,30.90
2018-11-10T18:52:43.260Z,22.00
2018-11-10T18:55:12.208Z,19.60
2018-11-10T18:57:40.796Z,19.70
2018-11-10T19:00:11.196Z,18.30
2018-11-10T19:02:39.747Z,16.53
2018-11-10T19:05:09.232Z,18.27
2018-11-10T19:07:37.678Z,17.90
2018-11-10T19:10:07.761Z,17.03
2018-11-10T19:12:36.108Z,17.33
2018-11-10T19:15:04.803Z,17.77
2018-11-10T19:17:33.125Z,18.67
2018-11-10T19:20:01.450Z,17.80
2018-11-10T19:22:29.766Z,19.90
2018-11-10T19:24:58.135Z,18.30
2018-11-10T19:27:26.417Z,17.47
2018-11-10T19:29:54.878Z,16.10
2018-11-10T19:32:23.256Z,18.67
2018-11-10T19:34:51.477Z,17.93
2018-11-10T19:37:19.768Z,20.20
2018-11-10T19:39:48.026Z,45.03
2018-11-10T19:42:16.302Z,32.30
2018-11-10T19:44:44.685Z,24.30
2018-11-10T19:47:13.120Z,21.50
2018-11-10T19:49:41.443Z,18.83
2018-11-10T19:52:10.075Z,20.53
2018-11-10T19:54:38.090Z,18.40
2018-11-10T19:57:07.513Z,17.53
2018-11-10T19:59:35.850Z,17.33
2018-11-10T20:02:04.185Z,19.60
2018-11-10T20:04:32.555Z,17.83
2018-11-10T20:07:00.848Z,17.20
2018-11-10T20:09:29.234Z,19.67
2018-11-10T20:11:57.553Z,17.73
2018-11-10T20:14:25.955Z,19.33
2018-11-10T20:16:54.366Z,19.60
2018-11-10T20:19:22.777Z,16.87
2018-11-10T20:21:51.055Z,16.67
2018-11-10T20:24:19.362Z,15.77
2018-11-10T20:26:47.651Z,16.63
2018-11-10T20:29:16.084Z,16.27
2018-11-10T20:31:44.365Z,15.47
2018-11-10T20:34:12.727Z,17.40
2018-11-10T20:36:41.051Z,15.67
2018-11-10T20:39:10.220Z,16.53
2018-11-10T20:41:38.936Z,16.53
2018-11-10T20:44:07.807Z,16.10
2018-11-10T20:46:36.133Z,15.67
2018-11-10T20:49:04.747Z,17.23
2018-11-10T20:51:33.085Z,17.17
2018-11-10T20:54:01.393Z,15.77
2018-11-10T20:56:29.739Z,15.93
2018-11-10T20:58:58.051Z,14.70
2018-11-10T21:01:26.368Z,15.10
2018-11-10T21:03:54.781Z,16.13
2018-11-10T21:06:23.081Z,15.70
2018-11-10T21:08:51.415Z,16.80
2018-11-10T21:11:19.826Z,16.97
2018-11-10T21:13:48.220Z,15.87
2018-11-10T21:16:16.644Z,21.13
2018-11-10T21:18:44.965Z,16.43
2018-11-10T21:21:13.295Z,16.23
2018-11-10T21:23:41.562Z,16.33
2018-11-10T21:26:09.931Z,15.80
2018-11-10T21:28:38.256Z,16.83
2018-11-10T21:31:06.533Z,16.70
2018-11-10T21:33:34.919Z,16.60
2018-11-10T21:36:03.139Z,16.00
2018-11-10T21:38:31.532Z,16.97
2018-11-10T21:40:59.887Z,18.30
2018-11-10T21:43:28.225Z,20.57
2018-11-10T21:45:56.478Z,17.57
2018-11-10T21:48:24.819Z,16.87
2018-11-10T21:50:53.100Z,16.20
2018-11-10T21:53:21.421Z,15.03
2018-11-10T21:55:49.674Z,15.90
2018-11-10T21:58:18.066Z,15.27
2018-11-10T22:00:46.392Z,15.50
2018-11-10T22:03:14.669Z,15.00
2018-11-10T22:05:42.941Z,18.17
2018-11-10T22:08:11.305Z,18.03
2018-11-10T22:10:39.622Z,17.57
2018-11-10T22:13:07.944Z,17.80
2018-11-10T22:15:37.393Z,18.00
2018-11-10T22:18:05.658Z,16.17
2018-11-10T22:20:33.980Z,17.47
2018-11-10T22:23:02.365Z,14.37
2018-11-10T22:25:30.637Z,14.70
2018-11-10T22:27:58.938Z,17.30
2018-11-10T22:30:27.275Z,14.93
2018-11-10T22:32:55.618Z,15.60
2018-11-10T22:35:24.003Z,16.20
2018-11-10T22:37:52.246Z,14.70
2018-11-10T22:40:21.625Z,15.10
2018-11-10T22:42:49.971Z,16.23
2018-11-10T22:45:19.686Z,16.60
2018-11-10T22:47:48.103Z,21.10
2018-11-10T22:50:18.808Z,18.50
2018-11-10T22:52:47.131Z,16.53
2018-11-10T22:55:15.437Z,17.87
2018-11-10T22:57:43.738Z,18.50
2018-11-10T23:00:15.928Z,18.60
2018-11-10T23:02:46.207Z,16.83
2018-11-10T23:05:14.734Z,17.27
2018-11-10T23:07:43.018Z,17.80
2018-11-10T23:10:11.584Z,15.80
2018-11-10T23:12:39.951Z,15.90
2018-11-10T23:15:08.329Z,16.10
2018-11-10T23:17:36.657Z,14.77
2018-11-10T23:20:06.400Z,14.97
2018-11-10T23:22:35.047Z,15.60
2018-11-10T23:25:03.476Z,14.77
2018-11-10T23:27:31.950Z,13.90
2018-11-10T23:30:00.373Z,14.47
2018-11-10T23:32:28.765Z,14.60
2018-11-10T23:34:57.130Z,15.53
2018-11-10T23:37:25.409Z,14.87
2018-11-10T23:39:53.698Z,14.07
2018-11-10T23:42:21.989Z,12.90
2018-11-10T23:44:50.353Z,13.53
2018-11-10T23:47:18.731Z,13.40
2018-11-10T23:49:47.025Z,12.80
2018-11-10T23:52:15.394Z,13.53
2018-11-10T23:54:43.726Z,13.17
2018-11-10T23:57:12.042Z,13.77
2018-11-10T23:59:40.363Z,14.03
